sensor_id;sensor_type;location;lat;lon;timestamp;pressure;altitude;pressure_sealevel;temperature;humidity
60015;BME280;45867;52.480;6.056;2023-02-13T00:01:37;103830.63;;;5.36;100.00
60015;BME280;45867;52.480;6.056;2023-02-13T00:04:02;103836.22;;;5.33;100.00
60015;BME280;45867;52.480;6.056;2023-02-13T00:06:29;103832.91;;;5.31;100.00
60015;BME280;45867;52.480;6.056;2023-02-13T00:08:54;103817.44;;;5.28;100.00
60015;BME280;45867;52.480;6.056;2023-02-13T00:11:20;103838.53;;;5.36;100.00
60015;BME280;45867;52.480;6.056;2023-02-13T00:13:46;103829.81;;;5.36;100.00
60015;BME280;45867;52.480;6.056;2023-02-13T00:16:11;103824.38;;;5.37;100.00
60015;BME280;45867;52.480;6.056;2023-02-13T00:18:37;103834.75;;;5.39;100.00
60015;BME280;45867;52.480;6.056;2023-02-13T00:21:09;103827.69;;;5.39;100.00
60015;BME280;45867;52.480;6.056;2023-02-13T00:23:36;103825.38;;;5.36;100.00
60015;BME280;45867;52.480;6.056;2023-02-13T00:26:07;103821.25;;;5.33;100.00
60015;BME280;45867;52.480;6.056;2023-02-13T00:28:33;103819.13;;;5.37;100.00
60015;BME280;45867;52.480;6.056;2023-02-13T00:31:07;103823.06;;;5.33;100.00
60015;BME280;45867;52.480;6.056;2023-02-13T00:33:33;103816.00;;;5.33;100.00
60015;BME280;45867;52.480;6.056;2023-02-13T00:36:20;103814.34;;;5.32;100.00
60015;BME280;45867;52.480;6.056;2023-02-13T00:38:46;103807.28;;;5.33;100.00
60015;BME280;45867;52.480;6.056;2023-02-13T00:41:12;103807.94;;;5.35;100.00
60015;BME280;45867;52.480;6.056;2023-02-13T00:43:39;103812.06;;;5.38;100.00
60015;BME280;45867;52.480;6.056;2023-02-13T00:46:04;103806.28;;;5.34;100.00
60015;BME280;45867;52.480;6.056;2023-02-13T00:48:31;103808.78;;;5.36;100.00
60015;BME280;45867;52.480;6.056;2023-02-13T00:50:58;103808.09;;;5.33;100.00
60015;BME280;45867;52.480;6.056;2023-02-13T00:53:24;103811.88;;;5.31;100.00
60015;BME280;45867;52.480;6.056;2023-02-13T00:55:50;103822.56;;;5.29;100.00
60015;BME280;45867;52.480;6.056;2023-02-13T00:58:17;103815.94;;;5.25;100.00
60015;BME280;45867;52.480;6.056;2023-02-13T01:00:43;103811.81;;;5.23;100.00
60015;BME280;45867;52.480;6.056;2023-02-13T01:03:08;103807.56;;;5.22;100.00
60015;BME280;45867;52.480;6.056;2023-02-13T01:05:34;103812.63;;;5.23;100.00
60015;BME280;45867;52.480;6.056;2023-02-13T01:08:00;103817.75;;;5.25;100.00
60015;BME280;45867;52.480;6.056;2023-02-13T01:10:25;103818.56;;;5.25;100.00
60015;BME280;45867;52.480;6.056;2023-02-13T01:12:51;103822.84;;;5.26;100.00
60015;BME280;45867;52.480;6.056;2023-02-13T01:15:17;103820.38;;;5.25;100.00
60015;BME280;45867;52.480;6.056;2023-02-13T01:17:43;103816.75;;;5.26;100.00
60015;BME280;45867;52.480;6.056;2023-02-13T01:20:10;103820.06;;;5.28;100.00
60015;BME280;45867;52.480;6.056;2023-02-13T01:22:36;103819.94;;;5.29;100.00
60015;BME280;45867;52.480;6.056;2023-02-13T01:25:08;103818.13;;;5.30;100.00
60015;BME280;45867;52.480;6.056;2023-02-13T01:27:33;103799.13;;;5.18;100.00
60015;BME280;45867;52.480;6.056;2023-02-13T01:29:59;103812.50;;;5.25;100.00
60015;BME280;45867;52.480;6.056;2023-02-13T01:32:24;103820.22;;;5.26;100.00
60015;BME280;45867;52.480;6.056;2023-02-13T01:34:50;103817.75;;;5.25;100.00
60015;BME280;45867;52.480;6.056;2023-02-13T01:37:15;103811.00;;;5.22;100.00
60015;BME280;45867;52.480;6.056;2023-02-13T01:39:41;103820.53;;;5.23;100.00
60015;BME280;45867;52.480;6.056;2023-02-13T01:42:21;103817.75;;;5.25;100.00
60015;BME280;45867;52.480;6.056;2023-02-13T01:45:02;103821.53;;;5.22;100.00
60015;BME280;45867;52.480;6.056;2023-02-13T01:52:39;103808.47;;;5.12;100.00
60015;BME280;45867;52.480;6.056;2023-02-13T01:55:08;103814.28;;;5.16;100.00
60015;BME280;45867;52.480;6.056;2023-02-13T01:57:34;103796.78;;;5.07;100.00
60015;BME280;45867;52.480;6.056;2023-02-13T02:00:07;103800.91;;;5.09;100.00
60015;BME280;45867;52.480;6.056;2023-02-13T02:02:38;103808.78;;;5.09;100.00
60015;BME280;45867;52.480;6.056;2023-02-13T02:05:07;103801.22;;;5.06;100.00
60015;BME280;45867;52.480;6.056;2023-02-13T02:07:34;103806.16;;;5.09;100.00
60015;BME280;45867;52.480;6.056;2023-02-13T02:10:04;103807.66;;;5.12;100.00
60015;BME280;45867;52.480;6.056;2023-02-13T02:12:42;103800.44;;;5.14;100.00
60015;BME280;45867;52.480;6.056;2023-02-13T02:15:11;103790.41;;;5.09;100.00
60015;BME280;45867;52.480;6.056;2023-02-13T02:17:36;103792.88;;;5.11;100.00
60015;BME280;45867;52.480;6.056;2023-02-13T02:31:03;103793.03;;;5.09;100.00
60015;BME280;45867;52.480;6.056;2023-02-13T02:36:36;103783.03;;;5.13;100.00
60015;BME280;45867;52.480;6.056;2023-02-13T02:44:49;103773.84;;;5.17;100.00
60015;BME280;45867;52.480;6.056;2023-02-13T02:47:30;103772.66;;;5.11;100.00
60015;BME280;45867;52.480;6.056;2023-02-13T02:53:06;103769.91;;;5.13;100.00
60015;BME280;45867;52.480;6.056;2023-02-13T02:55:42;103776.94;;;5.12;100.00
60015;BME280;45867;52.480;6.056;2023-02-13T02:58:32;103780.56;;;5.11;100.00
60015;BME280;45867;52.480;6.056;2023-02-13T03:01:22;103777.94;;;5.11;100.00
60015;BME280;45867;52.480;6.056;2023-02-13T03:04:15;103776.13;;;5.12;100.00
60015;BME280;45867;52.480;6.056;2023-02-13T03:07:05;103773.97;;;5.07;100.00
60015;BME280;45867;52.480;6.056;2023-02-13T03:09:36;103771.34;;;5.07;100.00
60015;BME280;45867;52.480;6.056;2023-02-13T03:12:23;103769.00;;;5.04;100.00
60015;BME280;45867;52.480;6.056;2023-02-13T03:15:10;103776.59;;;5.07;100.00
60015;BME280;45867;52.480;6.056;2023-02-13T03:17:36;103778.69;;;5.04;100.00
60015;BME280;45867;52.480;6.056;2023-02-13T03:20:41;103781.19;;;5.05;100.00
60015;BME280;45867;52.480;6.056;2023-02-13T03:23:45;103774.25;;;5.04;100.00
60015;BME280;45867;52.480;6.056;2023-02-13T03:26:39;103768.69;;;4.99;100.00
60015;BME280;45867;52.480;6.056;2023-02-13T03:32:20;103769.38;;;5.09;100.00
60015;BME280;45867;52.480;6.056;2023-02-13T03:38:07;103772.16;;;5.08;100.00
60015;BME280;45867;52.480;6.056;2023-02-13T03:40:42;103765.41;;;5.05;100.00
60015;BME280;45867;52.480;6.056;2023-02-13T03:43:38;103774.94;;;5.06;100.00
60015;BME280;45867;52.480;6.056;2023-02-13T03:46:05;103773.31;;;5.05;100.00
60015;BME280;45867;52.480;6.056;2023-02-13T03:48:35;103782.16;;;5.04;100.00
60015;BME280;45867;52.480;6.056;2023-02-13T03:51:37;103781.00;;;5.07;100.00
60015;BME280;45867;52.480;6.056;2023-02-13T03:54:07;103787.75;;;5.09;100.00
60015;BME280;45867;52.480;6.056;2023-02-13T03:56:39;103782.50;;;5.09;100.00
60015;BME280;45867;52.480;6.056;2023-02-13T03:59:33;103775.97;;;5.14;100.00
60015;BME280;45867;52.480;6.056;2023-02-13T04:04:46;103772.03;;;5.18;100.00
60015;BME280;45867;52.480;6.056;2023-02-13T04:07:17;103774.97;;;5.15;100.00
60015;BME280;45867;52.480;6.056;2023-02-13T04:09:59;103776.47;;;5.17;100.00
60015;BME280;45867;52.480;6.056;2023-02-13T04:12:32;103773.69;;;5.19;100.00
60015;BME280;45867;52.480;6.056;2023-02-13T04:15:09;103765.47;;;5.14;100.00
60015;BME280;45867;52.480;6.056;2023-02-13T04:17:41;103770.06;;;5.20;100.00
60015;BME280;45867;52.480;6.056;2023-02-13T04:20:09;103772.22;;;5.16;100.00
60015;BME280;45867;52.480;6.056;2023-02-13T04:22:43;103770.06;;;5.20;100.00
60015;BME280;45867;52.480;6.056;2023-02-13T04:25:10;103777.16;;;5.19;100.00
60015;BME280;45867;52.480;6.056;2023-02-13T04:27:36;103760.69;;;5.17;100.00
60015;BME280;45867;52.480;6.056;2023-02-13T04:30:01;103760.88;;;5.16;100.00
60015;BME280;45867;52.480;6.056;2023-02-13T04:32:26;103756.78;;;5.21;100.00
60015;BME280;45867;52.480;6.056;2023-02-13T04:34:53;103759.25;;;5.23;100.00
60015;BME280;45867;52.480;6.056;2023-02-13T04:37:18;103755.44;;;5.17;100.00
60015;BME280;45867;52.480;6.056;2023-02-13T04:39:43;103753.81;;;5.16;100.00
60015;BME280;45867;52.480;6.056;2023-02-13T04:42:09;103763.31;;;5.17;100.00
60015;BME280;45867;52.480;6.056;2023-02-13T04:44:34;103762.16;;;5.11;100.00
60015;BME280;45867;52.480;6.056;2023-02-13T04:46:59;103753.94;;;5.15;100.00
60015;BME280;45867;52.480;6.056;2023-02-13T04:49:25;103756.44;;;5.16;100.00
60015;BME280;45867;52.480;6.056;2023-02-13T04:51:51;103756.56;;;5.15;100.00
60015;BME280;45867;52.480;6.056;2023-02-13T04:54:16;103753.13;;;5.14;100.00
60015;BME280;45867;52.480;6.056;2023-02-13T04:56:41;103749.38;;;5.17;100.00
60015;BME280;45867;52.480;6.056;2023-02-13T04:59:07;103750.69;;;5.21;100.00
60015;BME280;45867;52.480;6.056;2023-02-13T05:01:32;103750.03;;;5.19;100.00
60015;BME280;45867;52.480;6.056;2023-02-13T05:03:58;103750.84;;;5.19;100.00
60015;BME280;45867;52.480;6.056;2023-02-13T05:06:30;103729.28;;;5.07;100.00
60015;BME280;45867;52.480;6.056;2023-02-13T05:09:01;103737.34;;;5.14;100.00
60015;BME280;45867;52.480;6.056;2023-02-13T05:11:26;103744.78;;;5.19;100.00
60015;BME280;45867;52.480;6.056;2023-02-13T05:13:51;103740.34;;;5.19;100.00
60015;BME280;45867;52.480;6.056;2023-02-13T05:16:17;103742.16;;;5.19;100.00
60015;BME280;45867;52.480;6.056;2023-02-13T05:18:42;103741.16;;;5.20;100.00
60015;BME280;45867;52.480;6.056;2023-02-13T05:21:08;103738.38;;;5.21;100.00
60015;BME280;45867;52.480;6.056;2023-02-13T05:23:52;103749.53;;;5.23;100.00
60015;BME280;45867;52.480;6.056;2023-02-13T05:26:17;103747.22;;;5.20;100.00
60015;BME280;45867;52.480;6.056;2023-02-13T05:28:42;103741.84;;;5.22;100.00
60015;BME280;45867;52.480;6.056;2023-02-13T05:31:26;103742.31;;;5.25;100.00
60015;BME280;45867;52.480;6.056;2023-02-13T05:33:52;103741.66;;;5.23;100.00
60015;BME280;45867;52.480;6.056;2023-02-13T05:36:17;103734.41;;;5.17;100.00
60015;BME280;45867;52.480;6.056;2023-02-13T05:38:42;103738.53;;;5.20;100.00
60015;BME280;45867;52.480;6.056;2023-02-13T05:41:08;103743.28;;;5.16;100.00
60015;BME280;45867;52.480;6.056;2023-02-13T05:43:36;103741.47;;;5.17;100.00
60015;BME280;45867;52.480;6.056;2023-02-13T05:46:06;103740.34;;;5.19;100.00
60015;BME280;45867;52.480;6.056;2023-02-13T05:48:32;103736.91;;;5.19;100.00
60015;BME280;45867;52.480;6.056;2023-02-13T05:50:58;103743.94;;;5.18;100.00
60015;BME280;45867;52.480;6.056;2023-02-13T05:53:23;103737.84;;;5.18;100.00
60015;BME280;45867;52.480;6.056;2023-02-13T05:55:49;103737.03;;;5.17;100.00
60015;BME280;45867;52.480;6.056;2023-02-13T05:58:17;103730.28;;;5.15;100.00
60015;BME280;45867;52.480;6.056;2023-02-13T06:00:45;103742.47;;;5.16;100.00
60015;BME280;45867;52.480;6.056;2023-02-13T06:03:18;103735.22;;;5.18;100.00
60015;BME280;45867;52.480;6.056;2023-02-13T06:05:44;103750.22;;;5.25;100.00
60015;BME280;45867;52.480;6.056;2023-02-13T06:08:09;103746.94;;;5.31;100.00
60015;BME280;45867;52.480;6.056;2023-02-13T06:10:35;103749.44;;;5.33;100.00
60015;BME280;45867;52.480;6.056;2023-02-13T06:13:00;103738.25;;;5.31;100.00
60015;BME280;45867;52.480;6.056;2023-02-13T06:15:25;103736.09;;;5.34;100.00
60015;BME280;45867;52.480;6.056;2023-02-13T06:17:51;103742.81;;;5.29;100.00
60015;BME280;45867;52.480;6.056;2023-02-13T06:20:16;103736.59;;;5.30;100.00
60015;BME280;45867;52.480;6.056;2023-02-13T06:22:42;103744.63;;;5.28;100.00
60015;BME280;45867;52.480;6.056;2023-02-13T06:25:07;103743.47;;;5.23;100.00
60015;BME280;45867;52.480;6.056;2023-02-13T06:27:33;103753.06;;;5.32;100.00
60015;BME280;45867;52.480;6.056;2023-02-13T06:29:58;103758.81;;;5.36;100.00
60015;BME280;45867;52.480;6.056;2023-02-13T06:32:26;103751.06;;;5.34;100.00
60015;BME280;45867;52.480;6.056;2023-02-13T06:35:01;103751.25;;;5.32;100.00
60015;BME280;45867;52.480;6.056;2023-02-13T06:37:36;103741.34;;;5.26;100.00
60015;BME280;45867;52.480;6.056;2023-02-13T06:40:01;103755.47;;;5.25;100.00
60015;BME280;45867;52.480;6.056;2023-02-13T06:42:27;103754.88;;;5.40;100.00
60015;BME280;45867;52.480;6.056;2023-02-13T06:44:52;103758.16;;;5.42;100.00
60015;BME280;45867;52.480;6.056;2023-02-13T06:47:17;103751.25;;;5.32;100.00
60015;BME280;45867;52.480;6.056;2023-02-13T06:49:43;103765.25;;;5.41;100.00
60015;BME280;45867;52.480;6.056;2023-02-13T06:52:09;103762.75;;;5.40;100.00
60015;BME280;45867;52.480;6.056;2023-02-13T06:54:34;103763.59;;;5.40;100.00
60015;BME280;45867;52.480;6.056;2023-02-13T06:56:59;103762.75;;;5.40;100.00
60015;BME280;45867;52.480;6.056;2023-02-13T06:59:25;103762.94;;;5.38;100.00
60015;BME280;45867;52.480;6.056;2023-02-13T07:01:50;103769.81;;;5.39;100.00
60015;BME280;45867;52.480;6.056;2023-02-13T07:04:18;103758.78;;;5.27;100.00
60015;BME280;45867;52.480;6.056;2023-02-13T07:06:54;103773.91;;;5.33;100.00
60015;BME280;45867;52.480;6.056;2023-02-13T07:09:19;103773.25;;;5.31;100.00
60015;BME280;45867;52.480;6.056;2023-02-13T07:11:45;103764.84;;;5.28;100.00
60015;BME280;45867;52.480;6.056;2023-02-13T07:14:10;103766.00;;;5.25;100.00
60015;BME280;45867;52.480;6.056;2023-02-13T07:16:36;103784.44;;;5.33;100.00
60015;BME280;45867;52.480;6.056;2023-02-13T07:19:01;103778.00;;;5.28;100.00
60015;BME280;45867;52.480;6.056;2023-02-13T07:21:27;103783.63;;;5.33;100.00
60015;BME280;45867;52.480;6.056;2023-02-13T07:23:52;103779.97;;;5.26;100.00
60015;BME280;45867;52.480;6.056;2023-02-13T07:26:17;103799.38;;;5.33;100.00
60015;BME280;45867;52.480;6.056;2023-02-13T07:28:46;103795.31;;;5.39;100.00
60015;BME280;45867;52.480;6.056;2023-02-13T07:31:13;103793.81;;;5.36;100.00
60015;BME280;45867;52.480;6.056;2023-02-13T07:33:39;103795.97;;;5.41;100.00
60015;BME280;45867;52.480;6.056;2023-02-13T07:36:04;103787.56;;;5.37;100.00
60015;BME280;45867;52.480;6.056;2023-02-13T07:38:37;103798.13;;;5.45;100.00
60015;BME280;45867;52.480;6.056;2023-02-13T07:41:05;103794.00;;;5.43;100.00
60015;BME280;45867;52.480;6.056;2023-02-13T07:43:58;103794.66;;;5.45;100.00
60015;BME280;45867;52.480;6.056;2023-02-13T07:46:54;103798.00;;;5.55;100.00
60015;BME280;45867;52.480;6.056;2023-02-13T07:49:35;103798.66;;;5.57;100.00
60015;BME280;45867;52.480;6.056;2023-02-13T07:52:08;103789.09;;;5.56;100.00
60015;BME280;45867;52.480;6.056;2023-02-13T07:54:37;103802.47;;;5.63;100.00
60015;BME280;45867;52.480;6.056;2023-02-13T08:01:25;103794.06;;;5.59;100.00
60015;BME280;45867;52.480;6.056;2023-02-13T08:04:22;103786.47;;;5.56;100.00
60015;BME280;45867;52.480;6.056;2023-02-13T08:06:52;103785.03;;;5.62;100.00
60015;BME280;45867;52.480;6.056;2023-02-13T08:09:19;103805.78;;;5.73;100.00
60015;BME280;45867;52.480;6.056;2023-02-13T08:12:06;103798.88;;;5.72;100.00
60015;BME280;45867;52.480;6.056;2023-02-13T08:14:34;103803.00;;;5.74;100.00
60015;BME280;45867;52.480;6.056;2023-02-13T08:17:00;103809.91;;;5.84;100.00
60015;BME280;45867;52.480;6.056;2023-02-13T08:19:31;103800.69;;;5.79;100.00
60015;BME280;45867;52.480;6.056;2023-02-13T08:21:56;103800.38;;;5.83;100.00
60015;BME280;45867;52.480;6.056;2023-02-13T08:24:37;103807.81;;;5.87;100.00
60015;BME280;45867;52.480;6.056;2023-02-13T08:27:15;103794.97;;;5.84;100.00
60015;BME280;45867;52.480;6.056;2023-02-13T08:30:17;103793.50;;;5.90;100.00
60015;BME280;45867;52.480;6.056;2023-02-13T08:32:43;103793.88;;;6.03;100.00
60015;BME280;45867;52.480;6.056;2023-02-13T08:35:38;103789.59;;;6.02;100.00
60015;BME280;45867;52.480;6.056;2023-02-13T08:38:42;103801.81;;;6.19;100.00
60015;BME280;45867;52.480;6.056;2023-02-13T08:41:07;103800.81;;;6.20;100.00
60015;BME280;45867;52.480;6.056;2023-02-13T08:43:35;103798.66;;;6.32;100.00
60015;BME280;45867;52.480;6.056;2023-02-13T08:46:12;103786.81;;;6.28;100.00
60015;BME280;45867;52.480;6.056;2023-02-13T08:48:38;103787.31;;;6.32;100.00
60015;BME280;45867;52.480;6.056;2023-02-13T08:51:07;103790.28;;;6.37;100.00
60015;BME280;45867;52.480;6.056;2023-02-13T08:53:37;103810.84;;;6.58;100.00
60015;BME280;45867;52.480;6.056;2023-02-13T08:56:03;103806.41;;;6.58;100.00
60015;BME280;45867;52.480;6.056;2023-02-13T08:58:28;103810.19;;;6.56;100.00
60015;BME280;45867;52.480;6.056;2023-02-13T09:00:54;103817.59;;;6.60;100.00
60015;BME280;45867;52.480;6.056;2023-02-13T09:03:20;103808.22;;;6.66;100.00
60015;BME280;45867;52.480;6.056;2023-02-13T09:05:48;103812.16;;;6.70;100.00
60015;BME280;45867;52.480;6.056;2023-02-13T09:08:15;103811.66;;;6.75;100.00
60015;BME280;45867;52.480;6.056;2023-02-13T09:10:54;103806.88;;;6.78;100.00
60015;BME280;45867;52.480;6.056;2023-02-13T09:13:22;103805.22;;;6.85;100.00
60015;BME280;45867;52.480;6.056;2023-02-13T09:15:48;103798.59;;;6.89;100.00
60015;BME280;45867;52.480;6.056;2023-02-13T09:18:14;103815.22;;;6.98;100.00
60015;BME280;45867;52.480;6.056;2023-02-13T09:20:39;103818.03;;;6.97;100.00
60015;BME280;45867;52.480;6.056;2023-02-13T09:23:08;103819.53;;;6.91;100.00
60015;BME280;45867;52.480;6.056;2023-02-13T09:25:33;103801.44;;;6.88;100.00
60015;BME280;45867;52.480;6.056;2023-02-13T09:27:58;103822.97;;;7.00;100.00
60015;BME280;45867;52.480;6.056;2023-02-13T09:30:24;103827.09;;;7.02;100.00
60015;BME280;45867;52.480;6.056;2023-02-13T09:32:51;103814.91;;;7.01;100.00
60015;BME280;45867;52.480;6.056;2023-02-13T09:35:18;103805.00;;;7.03;100.00
60015;BME280;45867;52.480;6.056;2023-02-13T09:37:43;103822.28;;;7.14;100.00
60015;BME280;45867;52.480;6.056;2023-02-13T09:42:45;103818.47;;;7.25;100.00
60015;BME280;45867;52.480;6.056;2023-02-13T09:45:12;103818.63;;;7.31;100.00
60015;BME280;45867;52.480;6.056;2023-02-13T09:47:43;103821.84;;;7.42;100.00
60015;BME280;45867;52.480;6.056;2023-02-13T09:50:21;103820.69;;;7.44;100.00
60015;BME280;45867;52.480;6.056;2023-02-13T09:52:49;103817.03;;;7.53;100.00
60015;BME280;45867;52.480;6.056;2023-02-13T09:58:31;103807.41;;;7.61;100.00
60015;BME280;45867;52.480;6.056;2023-02-13T10:01:01;103804.16;;;7.59;100.00
60015;BME280;45867;52.480;6.056;2023-02-13T10:03:33;103794.19;;;7.69;100.00
60015;BME280;45867;52.480;6.056;2023-02-13T10:06:24;103820.31;;;7.87;100.00
60015;BME280;45867;52.480;6.056;2023-02-13T10:11:57;103814.03;;;7.88;100.00
60015;BME280;45867;52.480;6.056;2023-02-13T10:14:34;103815.88;;;7.87;100.00
60015;BME280;45867;52.480;6.056;2023-02-13T10:17:10;103817.50;;;7.88;100.00
60015;BME280;45867;52.480;6.056;2023-02-13T10:20:01;103822.88;;;8.03;100.00
60015;BME280;45867;52.480;6.056;2023-02-13T10:22:30;103816.06;;;8.09;100.00
60015;BME280;45867;52.480;6.056;2023-02-13T10:25:03;103813.19;;;8.18;100.00
60015;BME280;45867;52.480;6.056;2023-02-13T10:27:35;103811.00;;;8.22;100.00
60015;BME280;45867;52.480;6.056;2023-02-13T10:35:57;103809.75;;;8.41;100.00
60015;BME280;45867;52.480;6.056;2023-02-13T10:38:28;103810.41;;;8.58;100.00
60015;BME280;45867;52.480;6.056;2023-02-13T10:41:18;103805.50;;;8.55;100.00
60015;BME280;45867;52.480;6.056;2023-02-13T10:57:40;103799.44;;;8.84;100.00
60015;BME280;45867;52.480;6.056;2023-02-13T11:00:17;103793.88;;;8.94;100.00
60015;BME280;45867;52.480;6.056;2023-02-13T11:02:43;103800.34;;;9.06;100.00
60015;BME280;45867;52.480;6.056;2023-02-13T11:05:21;103793.22;;;9.21;100.00
60015;BME280;45867;52.480;6.056;2023-02-13T11:07:48;103799.38;;;9.43;100.00
60015;BME280;45867;52.480;6.056;2023-02-13T11:10:23;103799.59;;;8.97;100.00
60015;BME280;45867;52.480;6.056;2023-02-13T11:12:50;103793.78;;;9.02;100.00
60015;BME280;45867;52.480;6.056;2023-02-13T11:17:52;103791.59;;;8.76;100.00
60015;BME280;45867;52.480;6.056;2023-02-13T11:20:30;103782.19;;;8.88;100.00
60015;BME280;45867;52.480;6.056;2023-02-13T11:25:59;103782.91;;;8.97;100.00
60015;BME280;45867;52.480;6.056;2023-02-13T11:28:28;103781.47;;;9.09;100.00
60015;BME280;45867;52.480;6.056;2023-02-13T11:31:11;103773.53;;;8.94;100.00
60015;BME280;45867;52.480;6.056;2023-02-13T11:33:37;103772.31;;;8.67;100.00
60015;BME280;45867;52.480;6.056;2023-02-13T11:36:23;103763.84;;;8.57;100.00
60015;BME280;45867;52.480;6.056;2023-02-13T11:39:06;103763.41;;;8.68;100.00
60015;BME280;45867;52.480;6.056;2023-02-13T11:41:44;103762.66;;;8.74;100.00
60015;BME280;45867;52.480;6.056;2023-02-13T11:44:29;103760.84;;;9.04;100.00
60015;BME280;45867;52.480;6.056;2023-02-13T11:46:57;103763.84;;;9.16;100.00
60015;BME280;45867;52.480;6.056;2023-02-13T11:49:25;103759.72;;;9.28;100.00
60015;BME280;45867;52.480;6.056;2023-02-13T11:51:57;103761.72;;;9.26;100.00
60015;BME280;45867;52.480;6.056;2023-02-13T11:56:54;103756.00;;;9.08;100.00
60015;BME280;45867;52.480;6.056;2023-02-13T11:59:22;103753.84;;;8.82;100.00
60015;BME280;45867;52.480;6.056;2023-02-13T12:05:16;103746.34;;;9.15;100.00
60015;BME280;45867;52.480;6.056;2023-02-13T12:07:44;103747.16;;;9.30;100.00
60015;BME280;45867;52.480;6.056;2023-02-13T12:10:28;103744.81;;;9.42;100.00
60015;BME280;45867;52.480;6.056;2023-02-13T12:12:54;103747.16;;;9.52;100.00
60015;BME280;45867;52.480;6.056;2023-02-13T12:15:23;103740.13;;;9.81;100.00
60015;BME280;45867;52.480;6.056;2023-02-13T12:20:42;103733.44;;;9.42;100.00
60015;BME280;45867;52.480;6.056;2023-02-13T12:26:16;103722.59;;;9.22;100.00
60015;BME280;45867;52.480;6.056;2023-02-13T12:28:51;103726.69;;;9.39;100.00
60015;BME280;45867;52.480;6.056;2023-02-13T12:31:53;103726.19;;;9.72;100.00
60015;BME280;45867;52.480;6.056;2023-02-13T12:34:31;103727.00;;;9.72;100.00
60015;BME280;45867;52.480;6.056;2023-02-13T12:42:52;103706.59;;;10.72;100.00
60015;BME280;45867;52.480;6.056;2023-02-13T12:45:35;103712.16;;;11.45;100.00
60015;BME280;45867;52.480;6.056;2023-02-13T12:48:12;103704.78;;;11.34;100.00
60015;BME280;45867;52.480;6.056;2023-02-13T12:53:43;103692.53;;;11.40;100.00
60015;BME280;45867;52.480;6.056;2023-02-13T12:56:53;103709.41;;;12.07;100.00
60015;BME280;45867;52.480;6.056;2023-02-13T12:59:29;103708.75;;;11.71;100.00
60015;BME280;45867;52.480;6.056;2023-02-13T13:05:10;103702.19;;;10.23;100.00
60015;BME280;45867;52.480;6.056;2023-02-13T13:07:54;103697.78;;;10.09;100.00
60015;BME280;45867;52.480;6.056;2023-02-13T13:10:37;103700.56;;;10.00;100.00
60015;BME280;45867;52.480;6.056;2023-02-13T13:13:16;103678.41;;;10.64;100.00
60015;BME280;45867;52.480;6.056;2023-02-13T13:18:46;103692.84;;;11.91;100.00
60015;BME280;45867;52.480;6.056;2023-02-13T13:21:24;103689.97;;;12.13;100.00
60015;BME280;45867;52.480;6.056;2023-02-13T13:23:59;103695.88;;;11.68;100.00
60015;BME280;45867;52.480;6.056;2023-02-13T13:29:04;103685.84;;;11.57;100.00
60015;BME280;45867;52.480;6.056;2023-02-13T13:31:33;103676.69;;;11.86;100.00
60015;BME280;45867;52.480;6.056;2023-02-13T13:34:04;103675.59;;;12.99;100.00
60015;BME280;45867;52.480;6.056;2023-02-13T13:36:35;103673.97;;;14.73;100.00
60015;BME280;45867;52.480;6.056;2023-02-13T13:39:16;103673.72;;;15.89;100.00
60015;BME280;45867;52.480;6.056;2023-02-13T13:45:02;103676.53;;;14.98;100.00
60015;BME280;45867;52.480;6.056;2023-02-13T13:47:39;103680.91;;;13.94;100.00
60015;BME280;45867;52.480;6.056;2023-02-13T13:50:20;103667.41;;;13.64;100.00
60015;BME280;45867;52.480;6.056;2023-02-13T13:53:13;103657.97;;;14.73;100.00
60015;BME280;45867;52.480;6.056;2023-02-13T13:58:30;103655.53;;;15.14;100.00
60015;BME280;45867;52.480;6.056;2023-02-13T14:01:30;103651.22;;;13.90;100.00
60015;BME280;45867;52.480;6.056;2023-02-13T14:04:36;103653.91;;;14.46;100.00
60015;BME280;45867;52.480;6.056;2023-02-13T14:11:54;103642.84;;;14.49;100.00
60015;BME280;45867;52.480;6.056;2023-02-13T14:16:53;103636.59;;;14.36;100.00
60015;BME280;45867;52.480;6.056;2023-02-13T14:19:50;103635.72;;;14.24;100.00
60015;BME280;45867;52.480;6.056;2023-02-13T14:22:33;103625.09;;;14.17;100.00
60015;BME280;45867;52.480;6.056;2023-02-13T14:25:05;103627.44;;;13.64;100.00
60015;BME280;45867;52.480;6.056;2023-02-13T14:27:37;103628.13;;;14.21;100.00
60015;BME280;45867;52.480;6.056;2023-02-13T14:30:26;103620.69;;;14.30;100.00
60015;BME280;45867;52.480;6.056;2023-02-13T14:32:53;103618.22;;;14.28;100.00
60015;BME280;45867;52.480;6.056;2023-02-13T14:35:26;103625.97;;;14.48;100.00
60015;BME280;45867;52.480;6.056;2023-02-13T14:37:58;103631.75;;;13.90;100.00
60015;BME280;45867;52.480;6.056;2023-02-13T14:40:31;103617.75;;;14.50;100.00
60015;BME280;45867;52.480;6.056;2023-02-13T14:43:26;103623.38;;;13.86;100.00
60015;BME280;45867;52.480;6.056;2023-02-13T14:46:17;103624.91;;;13.75;100.00
60015;BME280;45867;52.480;6.056;2023-02-13T14:49:11;103619.88;;;13.42;100.00
60015;BME280;45867;52.480;6.056;2023-02-13T14:51:49;103614.63;;;13.29;100.00
60015;BME280;45867;52.480;6.056;2023-02-13T14:56:52;103607.81;;;13.33;100.00
60015;BME280;45867;52.480;6.056;2023-02-13T14:59:23;103614.88;;;12.82;100.00
60015;BME280;45867;52.480;6.056;2023-02-13T15:01:58;103610.19;;;12.71;100.00
60015;BME280;45867;52.480;6.056;2023-02-13T15:06:49;103617.44;;;11.92;100.00
60015;BME280;45867;52.480;6.056;2023-02-13T15:09:29;103601.25;;;11.61;100.00
60015;BME280;45867;52.480;6.056;2023-02-13T15:11:57;103604.72;;;11.41;100.00
60015;BME280;45867;52.480;6.056;2023-02-13T15:17:12;103603.63;;;10.96;100.00
60015;BME280;45867;52.480;6.056;2023-02-13T15:19:47;103613.31;;;10.62;100.00